sensor_id;sensor_type;location;lat;lon;timestamp;temperature;humidity
42833;DHT22;28479;51.478;5.692;2022-08-19T00:00:25;18.40;99.90
42833;DHT22;28479;51.478;5.692;2022-08-19T00:02:51;18.40;99.90
42833;DHT22;28479;51.478;5.692;2022-08-19T00:05:18;18.30;99.90
42833;DHT22;28479;51.478;5.692;2022-08-19T00:07:44;18.30;99.90
42833;DHT22;28479;51.478;5.692;2022-08-19T00:10:12;18.30;99.90
42833;DHT22;28479;51.478;5.692;2022-08-19T00:12:38;18.30;99.90
42833;DHT22;28479;51.478;5.692;2022-08-19T00:15:05;18.30;99.90
42833;DHT22;28479;51.478;5.692;2022-08-19T00:17:31;18.30;99.90
42833;DHT22;28479;51.478;5.692;2022-08-19T00:19:57;18.30;99.90
42833;DHT22;28479;51.478;5.692;2022-08-19T00:22:23;18.20;99.90
42833;DHT22;28479;51.478;5.692;2022-08-19T00:24:48;18.20;99.90
42833;DHT22;28479;51.478;5.692;2022-08-19T00:27:14;18.20;99.90
42833;DHT22;28479;51.478;5.692;2022-08-19T00:29:40;18.20;99.90
42833;DHT22;28479;51.478;5.692;2022-08-19T00:32:06;18.10;99.90
42833;DHT22;28479;51.478;5.692;2022-08-19T00:34:32;18.10;99.90
42833;DHT22;28479;51.478;5.692;2022-08-19T00:36:58;18.10;99.90
42833;DHT22;28479;51.478;5.692;2022-08-19T00:39:23;18.00;99.90
42833;DHT22;28479;51.478;5.692;2022-08-19T00:41:50;17.90;99.90
42833;DHT22;28479;51.478;5.692;2022-08-19T00:44:19;17.90;99.90
42833;DHT22;28479;51.478;5.692;2022-08-19T00:46:47;17.90;99.90
42833;DHT22;28479;51.478;5.692;2022-08-19T00:49:16;18.00;99.90
42833;DHT22;28479;51.478;5.692;2022-08-19T00:51:47;17.90;99.90
42833;DHT22;28479;51.478;5.692;2022-08-19T00:54:14;17.90;99.90
42833;DHT22;28479;51.478;5.692;2022-08-19T00:56:40;17.90;99.90
42833;DHT22;28479;51.478;5.692;2022-08-19T00:59:06;17.90;99.90
42833;DHT22;28479;51.478;5.692;2022-08-19T01:01:38;17.90;99.90
42833;DHT22;28479;51.478;5.692;2022-08-19T01:04:05;18.00;99.90
42833;DHT22;28479;51.478;5.692;2022-08-19T01:06:31;18.00;99.90
42833;DHT22;28479;51.478;5.692;2022-08-19T01:08:59;17.90;99.90
42833;DHT22;28479;51.478;5.692;2022-08-19T01:11:26;17.80;99.90
42833;DHT22;28479;51.478;5.692;2022-08-19T01:13:53;17.90;99.90
42833;DHT22;28479;51.478;5.692;2022-08-19T01:16:21;17.80;99.90
42833;DHT22;28479;51.478;5.692;2022-08-19T01:18:48;17.80;99.90
42833;DHT22;28479;51.478;5.692;2022-08-19T01:23:53;17.80;99.90
42833;DHT22;28479;51.478;5.692;2022-08-19T01:26:23;17.80;99.90
42833;DHT22;28479;51.478;5.692;2022-08-19T01:28:53;17.80;99.90
42833;DHT22;28479;51.478;5.692;2022-08-19T01:31:23;17.80;99.90
42833;DHT22;28479;51.478;5.692;2022-08-19T01:33:51;17.80;99.90
42833;DHT22;28479;51.478;5.692;2022-08-19T01:36:43;17.80;99.90
42833;DHT22;28479;51.478;5.692;2022-08-19T01:39:19;17.70;99.90
42833;DHT22;28479;51.478;5.692;2022-08-19T01:41:45;17.70;99.90
42833;DHT22;28479;51.478;5.692;2022-08-19T01:44:11;17.70;99.90
42833;DHT22;28479;51.478;5.692;2022-08-19T01:46:37;17.70;99.90
42833;DHT22;28479;51.478;5.692;2022-08-19T01:49:05;17.70;99.90
42833;DHT22;28479;51.478;5.692;2022-08-19T01:51:31;17.70;99.90
42833;DHT22;28479;51.478;5.692;2022-08-19T01:53:57;17.70;99.90
42833;DHT22;28479;51.478;5.692;2022-08-19T01:56:23;17.70;99.90
42833;DHT22;28479;51.478;5.692;2022-08-19T01:58:53;17.60;99.90
42833;DHT22;28479;51.478;5.692;2022-08-19T02:01:19;17.60;99.90
42833;DHT22;28479;51.478;5.692;2022-08-19T02:03:45;17.60;99.90
42833;DHT22;28479;51.478;5.692;2022-08-19T02:06:12;17.50;99.90
42833;DHT22;28479;51.478;5.692;2022-08-19T02:08:38;17.60;99.90
42833;DHT22;28479;51.478;5.692;2022-08-19T02:11:05;17.60;99.90
42833;DHT22;28479;51.478;5.692;2022-08-19T02:13:33;17.60;99.90
42833;DHT22;28479;51.478;5.692;2022-08-19T02:15:59;17.60;99.90
42833;DHT22;28479;51.478;5.692;2022-08-19T02:18:24;17.60;99.90
42833;DHT22;28479;51.478;5.692;2022-08-19T02:20:52;17.50;99.90
42833;DHT22;28479;51.478;5.692;2022-08-19T02:23:17;17.60;99.90
42833;DHT22;28479;51.478;5.692;2022-08-19T02:25:45;17.50;99.90
42833;DHT22;28479;51.478;5.692;2022-08-19T02:28:11;17.50;99.90
42833;DHT22;28479;51.478;5.692;2022-08-19T02:30:37;17.40;99.90
42833;DHT22;28479;51.478;5.692;2022-08-19T02:33:04;17.40;99.90
42833;DHT22;28479;51.478;5.692;2022-08-19T02:35:30;17.40;99.90
42833;DHT22;28479;51.478;5.692;2022-08-19T02:37:56;17.40;99.90
42833;DHT22;28479;51.478;5.692;2022-08-19T02:40:40;17.40;99.90
42833;DHT22;28479;51.478;5.692;2022-08-19T02:43:07;17.40;99.90
42833;DHT22;28479;51.478;5.692;2022-08-19T02:45:35;17.40;99.90
42833;DHT22;28479;51.478;5.692;2022-08-19T02:48:01;17.30;99.90
42833;DHT22;28479;51.478;5.692;2022-08-19T02:50:27;17.20;99.90
42833;DHT22;28479;51.478;5.692;2022-08-19T02:52:53;17.20;99.90
42833;DHT22;28479;51.478;5.692;2022-08-19T02:55:19;17.10;99.90
42833;DHT22;28479;51.478;5.692;2022-08-19T02:57:46;17.10;99.90
42833;DHT22;28479;51.478;5.692;2022-08-19T03:00:12;17.10;99.90
42833;DHT22;28479;51.478;5.692;2022-08-19T03:02:38;17.00;99.90
42833;DHT22;28479;51.478;5.692;2022-08-19T03:05:08;17.00;99.90
42833;DHT22;28479;51.478;5.692;2022-08-19T03:07:35;17.00;99.90
42833;DHT22;28479;51.478;5.692;2022-08-19T03:10:02;17.00;99.90
42833;DHT22;28479;51.478;5.692;2022-08-19T03:12:28;16.90;99.90
42833;DHT22;28479;51.478;5.692;2022-08-19T03:14:54;16.90;99.90
42833;DHT22;28479;51.478;5.692;2022-08-19T03:17:20;16.90;99.90
42833;DHT22;28479;51.478;5.692;2022-08-19T03:19:51;16.90;99.90
42833;DHT22;28479;51.478;5.692;2022-08-19T03:22:17;16.80;99.90
42833;DHT22;28479;51.478;5.692;2022-08-19T03:24:42;16.80;99.90
42833;DHT22;28479;51.478;5.692;2022-08-19T03:27:09;16.80;99.90
42833;DHT22;28479;51.478;5.692;2022-08-19T03:29:36;16.90;99.90
42833;DHT22;28479;51.478;5.692;2022-08-19T03:32:05;16.80;99.90
42833;DHT22;28479;51.478;5.692;2022-08-19T03:34:32;16.80;99.90
42833;DHT22;28479;51.478;5.692;2022-08-19T03:37:02;16.80;99.90
42833;DHT22;28479;51.478;5.692;2022-08-19T03:39:28;16.90;99.90
42833;DHT22;28479;51.478;5.692;2022-08-19T03:41:54;16.90;99.90
42833;DHT22;28479;51.478;5.692;2022-08-19T03:44:25;16.90;99.90
42833;DHT22;28479;51.478;5.692;2022-08-19T03:46:57;16.90;99.90
42833;DHT22;28479;51.478;5.692;2022-08-19T03:49:25;16.90;99.90
42833;DHT22;28479;51.478;5.692;2022-08-19T03:51:54;16.90;99.90
42833;DHT22;28479;51.478;5.692;2022-08-19T03:54:22;16.90;99.90
42833;DHT22;28479;51.478;5.692;2022-08-19T03:56:50;16.90;99.90
42833;DHT22;28479;51.478;5.692;2022-08-19T03:59:24;16.80;99.90
42833;DHT22;28479;51.478;5.692;2022-08-19T04:01:56;16.80;99.90
42833;DHT22;28479;51.478;5.692;2022-08-19T04:04:22;16.80;99.90
42833;DHT22;28479;51.478;5.692;2022-08-19T04:06:48;16.80;99.90
42833;DHT22;28479;51.478;5.692;2022-08-19T04:09:15;16.90;99.90
42833;DHT22;28479;51.478;5.692;2022-08-19T04:11:52;16.80;99.90
42833;DHT22;28479;51.478;5.692;2022-08-19T04:14:26;16.70;99.90
42833;DHT22;28479;51.478;5.692;2022-08-19T04:16:52;16.70;99.90
42833;DHT22;28479;51.478;5.692;2022-08-19T04:19:19;16.70;99.90
42833;DHT22;28479;51.478;5.692;2022-08-19T04:21:47;16.70;99.90
42833;DHT22;28479;51.478;5.692;2022-08-19T04:24:13;16.70;99.90
42833;DHT22;28479;51.478;5.692;2022-08-19T04:26:39;16.60;99.90
42833;DHT22;28479;51.478;5.692;2022-08-19T04:29:08;16.60;99.90
42833;DHT22;28479;51.478;5.692;2022-08-19T04:31:34;16.60;99.90
42833;DHT22;28479;51.478;5.692;2022-08-19T04:34:03;16.60;99.90
42833;DHT22;28479;51.478;5.692;2022-08-19T04:36:35;16.60;99.90
42833;DHT22;28479;51.478;5.692;2022-08-19T04:39:05;16.50;99.90
42833;DHT22;28479;51.478;5.692;2022-08-19T04:41:31;16.50;99.90
42833;DHT22;28479;51.478;5.692;2022-08-19T04:44:16;16.50;99.90
42833;DHT22;28479;51.478;5.692;2022-08-19T04:46:46;16.50;99.90
42833;DHT22;28479;51.478;5.692;2022-08-19T04:49:14;16.50;99.90
42833;DHT22;28479;51.478;5.692;2022-08-19T04:51:42;16.50;99.90
42833;DHT22;28479;51.478;5.692;2022-08-19T04:54:09;16.40;99.90
42833;DHT22;28479;51.478;5.692;2022-08-19T04:56:35;16.40;99.90
42833;DHT22;28479;51.478;5.692;2022-08-19T04:59:00;16.50;99.90
42833;DHT22;28479;51.478;5.692;2022-08-19T05:01:30;16.50;99.90
42833;DHT22;28479;51.478;5.692;2022-08-19T05:04:02;16.60;99.90
42833;DHT22;28479;51.478;5.692;2022-08-19T05:06:29;16.70;99.90
42833;DHT22;28479;51.478;5.692;2022-08-19T05:08:58;16.70;99.90
42833;DHT22;28479;51.478;5.692;2022-08-19T05:11:27;16.80;99.90
42833;DHT22;28479;51.478;5.692;2022-08-19T05:13:54;16.80;99.90
42833;DHT22;28479;51.478;5.692;2022-08-19T05:16:21;16.80;99.90
42833;DHT22;28479;51.478;5.692;2022-08-19T05:18:46;16.80;99.90
42833;DHT22;28479;51.478;5.692;2022-08-19T05:21:32;16.80;99.90
42833;DHT22;28479;51.478;5.692;2022-08-19T05:24:17;16.80;99.90
42833;DHT22;28479;51.478;5.692;2022-08-19T05:26:45;16.90;99.90
42833;DHT22;28479;51.478;5.692;2022-08-19T05:29:13;17.00;99.90
42833;DHT22;28479;51.478;5.692;2022-08-19T05:31:39;17.00;99.90
42833;DHT22;28479;51.478;5.692;2022-08-19T05:34:06;17.00;99.90
42833;DHT22;28479;51.478;5.692;2022-08-19T05:36:50;17.10;99.90
42833;DHT22;28479;51.478;5.692;2022-08-19T05:39:19;17.20;99.90
42833;DHT22;28479;51.478;5.692;2022-08-19T05:41:47;17.20;99.90
42833;DHT22;28479;51.478;5.692;2022-08-19T05:44:14;17.30;99.90
42833;DHT22;28479;51.478;5.692;2022-08-19T05:46:40;17.30;99.90
42833;DHT22;28479;51.478;5.692;2022-08-19T05:49:08;17.30;99.90
42833;DHT22;28479;51.478;5.692;2022-08-19T05:51:36;17.40;99.90
42833;DHT22;28479;51.478;5.692;2022-08-19T05:54:03;17.30;99.90
42833;DHT22;28479;51.478;5.692;2022-08-19T05:56:30;17.40;99.90
42833;DHT22;28479;51.478;5.692;2022-08-19T05:58:57;17.40;99.90
42833;DHT22;28479;51.478;5.692;2022-08-19T06:01:25;17.50;99.90
42833;DHT22;28479;51.478;5.692;2022-08-19T06:03:51;17.50;99.90
42833;DHT22;28479;51.478;5.692;2022-08-19T06:06:17;17.40;99.90
42833;DHT22;28479;51.478;5.692;2022-08-19T06:08:44;17.40;99.90
42833;DHT22;28479;51.478;5.692;2022-08-19T06:13:45;17.50;99.90
42833;DHT22;28479;51.478;5.692;2022-08-19T06:16:13;17.60;99.90
42833;DHT22;28479;51.478;5.692;2022-08-19T06:18:45;17.70;99.90
42833;DHT22;28479;51.478;5.692;2022-08-19T06:21:11;17.80;99.90
42833;DHT22;28479;51.478;5.692;2022-08-19T06:23:37;17.80;99.90
42833;DHT22;28479;51.478;5.692;2022-08-19T06:26:02;17.90;99.90
42833;DHT22;28479;51.478;5.692;2022-08-19T06:28:28;17.90;99.90
42833;DHT22;28479;51.478;5.692;2022-08-19T06:30:53;17.90;99.90
42833;DHT22;28479;51.478;5.692;2022-08-19T06:33:19;18.00;99.90
42833;DHT22;28479;51.478;5.692;2022-08-19T06:35:45;17.90;99.90
42833;DHT22;28479;51.478;5.692;2022-08-19T06:38:10;17.90;99.90
42833;DHT22;28479;51.478;5.692;2022-08-19T06:40:36;18.10;99.90
42833;DHT22;28479;51.478;5.692;2022-08-19T06:43:03;18.10;99.90
42833;DHT22;28479;51.478;5.692;2022-08-19T06:45:29;18.10;99.90
42833;DHT22;28479;51.478;5.692;2022-08-19T06:47:55;18.10;99.90
42833;DHT22;28479;51.478;5.692;2022-08-19T06:50:22;18.20;99.90
42833;DHT22;28479;51.478;5.692;2022-08-19T06:52:48;18.20;99.90
42833;DHT22;28479;51.478;5.692;2022-08-19T06:55:14;18.40;99.90
42833;DHT22;28479;51.478;5.692;2022-08-19T06:57:41;18.50;99.90
42833;DHT22;28479;51.478;5.692;2022-08-19T07:00:08;18.50;99.90
42833;DHT22;28479;51.478;5.692;2022-08-19T07:02:38;18.60;99.90
42833;DHT22;28479;51.478;5.692;2022-08-19T07:05:04;18.60;99.90
42833;DHT22;28479;51.478;5.692;2022-08-19T07:07:30;18.70;99.90
42833;DHT22;28479;51.478;5.692;2022-08-19T07:09:56;18.70;99.90
42833;DHT22;28479;51.478;5.692;2022-08-19T07:12:22;18.90;99.90
42833;DHT22;28479;51.478;5.692;2022-08-19T07:14:48;18.90;99.90
42833;DHT22;28479;51.478;5.692;2022-08-19T07:17:15;19.00;99.90
42833;DHT22;28479;51.478;5.692;2022-08-19T07:19:41;19.00;99.90
42833;DHT22;28479;51.478;5.692;2022-08-19T07:22:09;19.10;99.90
42833;DHT22;28479;51.478;5.692;2022-08-19T07:24:36;19.10;99.90
42833;DHT22;28479;51.478;5.692;2022-08-19T07:27:05;19.20;99.90
42833;DHT22;28479;51.478;5.692;2022-08-19T07:29:33;19.30;99.90
42833;DHT22;28479;51.478;5.692;2022-08-19T07:31:59;19.40;99.90
42833;DHT22;28479;51.478;5.692;2022-08-19T07:34:27;19.40;99.90
42833;DHT22;28479;51.478;5.692;2022-08-19T07:36:54;19.40;99.90
42833;DHT22;28479;51.478;5.692;2022-08-19T07:39:25;19.40;99.90
42833;DHT22;28479;51.478;5.692;2022-08-19T07:41:51;19.40;99.90
42833;DHT22;28479;51.478;5.692;2022-08-19T07:44:18;19.50;99.90
42833;DHT22;28479;51.478;5.692;2022-08-19T07:46:48;19.50;99.90
42833;DHT22;28479;51.478;5.692;2022-08-19T07:49:15;19.50;99.90
42833;DHT22;28479;51.478;5.692;2022-08-19T07:51:55;19.50;99.90
42833;DHT22;28479;51.478;5.692;2022-08-19T07:54:22;19.60;99.90
42833;DHT22;28479;51.478;5.692;2022-08-19T07:56:48;19.60;99.90
42833;DHT22;28479;51.478;5.692;2022-08-19T07:59:16;19.60;99.90
42833;DHT22;28479;51.478;5.692;2022-08-19T08:01:43;19.70;99.90
42833;DHT22;28479;51.478;5.692;2022-08-19T08:04:09;19.80;99.90
42833;DHT22;28479;51.478;5.692;2022-08-19T08:06:54;19.80;99.90
42833;DHT22;28479;51.478;5.692;2022-08-19T08:09:41;19.90;99.90
42833;DHT22;28479;51.478;5.692;2022-08-19T08:12:11;20.00;99.90
42833;DHT22;28479;51.478;5.692;2022-08-19T08:14:47;20.00;99.90
42833;DHT22;28479;51.478;5.692;2022-08-19T08:17:14;20.00;99.90
42833;DHT22;28479;51.478;5.692;2022-08-19T08:19:41;20.00;99.90
42833;DHT22;28479;51.478;5.692;2022-08-19T08:22:08;20.10;99.90
42833;DHT22;28479;51.478;5.692;2022-08-19T08:24:54;20.20;99.90
42833;DHT22;28479;51.478;5.692;2022-08-19T08:27:20;20.30;99.90
42833;DHT22;28479;51.478;5.692;2022-08-19T08:29:45;20.40;99.90
42833;DHT22;28479;51.478;5.692;2022-08-19T08:32:11;20.50;99.90
42833;DHT22;28479;51.478;5.692;2022-08-19T08:34:36;20.50;99.90
42833;DHT22;28479;51.478;5.692;2022-08-19T08:37:02;20.50;99.90
42833;DHT22;28479;51.478;5.692;2022-08-19T08:39:28;20.60;99.90
42833;DHT22;28479;51.478;5.692;2022-08-19T08:44:43;20.80;99.90
42833;DHT22;28479;51.478;5.692;2022-08-19T08:47:17;21.00;99.90
42833;DHT22;28479;51.478;5.692;2022-08-19T08:49:51;20.90;99.90
42833;DHT22;28479;51.478;5.692;2022-08-19T08:52:24;20.80;99.90
42833;DHT22;28479;51.478;5.692;2022-08-19T08:54:52;20.80;99.90
42833;DHT22;28479;51.478;5.692;2022-08-19T09:00:22;20.80;99.90
42833;DHT22;28479;51.478;5.692;2022-08-19T09:02:48;21.00;99.90
42833;DHT22;28479;51.478;5.692;2022-08-19T09:05:14;21.20;99.90
42833;DHT22;28479;51.478;5.692;2022-08-19T09:08:06;21.40;99.90
42833;DHT22;28479;51.478;5.692;2022-08-19T09:10:39;21.50;99.90
42833;DHT22;28479;51.478;5.692;2022-08-19T09:16:09;21.80;99.90
42833;DHT22;28479;51.478;5.692;2022-08-19T09:18:41;21.90;99.90
42833;DHT22;28479;51.478;5.692;2022-08-19T09:21:07;22.10;99.90
42833;DHT22;28479;51.478;5.692;2022-08-19T09:23:35;22.10;99.90
42833;DHT22;28479;51.478;5.692;2022-08-19T09:26:00;22.00;99.90
42833;DHT22;28479;51.478;5.692;2022-08-19T09:28:26;22.10;99.90
42833;DHT22;28479;51.478;5.692;2022-08-19T09:30:57;22.10;99.90
42833;DHT22;28479;51.478;5.692;2022-08-19T09:33:22;22.20;99.90
42833;DHT22;28479;51.478;5.692;2022-08-19T09:35:48;22.20;99.90
42833;DHT22;28479;51.478;5.692;2022-08-19T09:38:14;22.20;99.90
42833;DHT22;28479;51.478;5.692;2022-08-19T09:40:39;22.30;99.90
42833;DHT22;28479;51.478;5.692;2022-08-19T09:43:05;22.40;99.90
42833;DHT22;28479;51.478;5.692;2022-08-19T09:45:31;22.50;99.90
42833;DHT22;28479;51.478;5.692;2022-08-19T09:47:57;22.30;99.90
42833;DHT22;28479;51.478;5.692;2022-08-19T09:50:23;22.20;99.90
42833;DHT22;28479;51.478;5.692;2022-08-19T09:52:49;22.10;99.90
42833;DHT22;28479;51.478;5.692;2022-08-19T09:55:17;22.20;99.90
42833;DHT22;28479;51.478;5.692;2022-08-19T09:57:43;22.30;99.90
42833;DHT22;28479;51.478;5.692;2022-08-19T10:00:09;22.50;99.90
42833;DHT22;28479;51.478;5.692;2022-08-19T10:02:35;22.30;99.90
42833;DHT22;28479;51.478;5.692;2022-08-19T10:05:01;22.30;99.90
42833;DHT22;28479;51.478;5.692;2022-08-19T10:07:45;22.50;99.90
42833;DHT22;28479;51.478;5.692;2022-08-19T10:10:11;23.00;99.90
42833;DHT22;28479;51.478;5.692;2022-08-19T10:12:37;22.90;99.90
42833;DHT22;28479;51.478;5.692;2022-08-19T10:15:04;23.20;99.90
42833;DHT22;28479;51.478;5.692;2022-08-19T10:17:31;23.20;99.90
42833;DHT22;28479;51.478;5.692;2022-08-19T10:20:00;23.20;99.90
42833;DHT22;28479;51.478;5.692;2022-08-19T10:22:27;23.10;99.90
42833;DHT22;28479;51.478;5.692;2022-08-19T10:24:53;23.10;99.90
42833;DHT22;28479;51.478;5.692;2022-08-19T10:27:19;23.10;99.90
42833;DHT22;28479;51.478;5.692;2022-08-19T10:29:44;23.20;99.90
42833;DHT22;28479;51.478;5.692;2022-08-19T10:32:10;23.20;99.90
42833;DHT22;28479;51.478;5.692;2022-08-19T10:34:37;23.00;99.90
42833;DHT22;28479;51.478;5.692;2022-08-19T10:37:04;22.90;99.90
42833;DHT22;28479;51.478;5.692;2022-08-19T10:39:34;23.10;99.90
42833;DHT22;28479;51.478;5.692;2022-08-19T10:42:06;23.10;99.90
42833;DHT22;28479;51.478;5.692;2022-08-19T10:44:32;23.10;99.90
42833;DHT22;28479;51.478;5.692;2022-08-19T10:46:59;23.30;99.90
42833;DHT22;28479;51.478;5.692;2022-08-19T10:49:24;23.30;99.90
42833;DHT22;28479;51.478;5.692;2022-08-19T10:51:50;23.10;99.90
42833;DHT22;28479;51.478;5.692;2022-08-19T10:54:34;22.90;99.90
42833;DHT22;28479;51.478;5.692;2022-08-19T10:57:18;22.70;99.90
42833;DHT22;28479;51.478;5.692;2022-08-19T10:59:44;22.50;99.90
42833;DHT22;28479;51.478;5.692;2022-08-19T11:02:11;22.60;99.90
42833;DHT22;28479;51.478;5.692;2022-08-19T11:04:38;22.50;99.90
42833;DHT22;28479;51.478;5.692;2022-08-19T11:07:06;22.90;99.90
42833;DHT22;28479;51.478;5.692;2022-08-19T11:09:37;23.00;99.90
42833;DHT22;28479;51.478;5.692;2022-08-19T11:12:04;23.40;99.90
42833;DHT22;28479;51.478;5.692;2022-08-19T11:14:30;23.10;99.90
42833;DHT22;28479;51.478;5.692;2022-08-19T11:16:58;23.20;99.90
42833;DHT22;28479;51.478;5.692;2022-08-19T11:19:23;23.30;99.90
42833;DHT22;28479;51.478;5.692;2022-08-19T11:21:51;23.30;99.90
42833;DHT22;28479;51.478;5.692;2022-08-19T11:24:19;23.30;99.90
42833;DHT22;28479;51.478;5.692;2022-08-19T11:26:47;23.60;99.90
42833;DHT22;28479;51.478;5.692;2022-08-19T11:29:15;23.50;99.90
42833;DHT22;28479;51.478;5.692;2022-08-19T11:31:43;23.80;99.90
42833;DHT22;28479;51.478;5.692;2022-08-19T11:34:13;24.10;99.90
42833;DHT22;28479;51.478;5.692;2022-08-19T11:36:42;24.20;99.90
42833;DHT22;28479;51.478;5.692;2022-08-19T11:39:10;24.20;99.90
42833;DHT22;28479;51.478;5.692;2022-08-19T11:41:36;24.30;99.90
42833;DHT22;28479;51.478;5.692;2022-08-19T11:44:03;24.90;99.90
42833;DHT22;28479;51.478;5.692;2022-08-19T11:46:30;24.90;99.90
42833;DHT22;28479;51.478;5.692;2022-08-19T11:48:57;25.00;99.90
42833;DHT22;28479;51.478;5.692;2022-08-19T11:51:24;24.90;99.90
42833;DHT22;28479;51.478;5.692;2022-08-19T11:53:51;25.20;99.90
42833;DHT22;28479;51.478;5.692;2022-08-19T11:56:17;25.40;99.90
42833;DHT22;28479;51.478;5.692;2022-08-19T11:58:43;25.10;99.90
42833;DHT22;28479;51.478;5.692;2022-08-19T12:01:10;24.90;99.90
42833;DHT22;28479;51.478;5.692;2022-08-19T12:03:37;24.90;99.90
42833;DHT22;28479;51.478;5.692;2022-08-19T12:06:05;24.80;99.90
42833;DHT22;28479;51.478;5.692;2022-08-19T12:08:31;24.90;99.90
42833;DHT22;28479;51.478;5.692;2022-08-19T12:10:57;25.20;99.90
42833;DHT22;28479;51.478;5.692;2022-08-19T12:13:23;25.30;99.90
42833;DHT22;28479;51.478;5.692;2022-08-19T12:15:50;25.40;99.90
42833;DHT22;28479;51.478;5.692;2022-08-19T12:18:16;25.30;99.90
42833;DHT22;28479;51.478;5.692;2022-08-19T12:20:42;25.40;99.90
42833;DHT22;28479;51.478;5.692;2022-08-19T12:23:09;25.40;99.90
42833;DHT22;28479;51.478;5.692;2022-08-19T12:25:36;25.30;99.90
42833;DHT22;28479;51.478;5.692;2022-08-19T12:28:02;25.60;99.90
42833;DHT22;28479;51.478;5.692;2022-08-19T12:30:28;25.60;99.90
42833;DHT22;28479;51.478;5.692;2022-08-19T12:32:54;25.80;99.90
42833;DHT22;28479;51.478;5.692;2022-08-19T12:35:19;26.30;99.90
42833;DHT22;28479;51.478;5.692;2022-08-19T12:37:47;26.60;99.90
42833;DHT22;28479;51.478;5.692;2022-08-19T12:40:13;26.30;99.90
42833;DHT22;28479;51.478;5.692;2022-08-19T12:42:39;26.60;99.90
42833;DHT22;28479;51.478;5.692;2022-08-19T12:45:12;26.60;99.90
42833;DHT22;28479;51.478;5.692;2022-08-19T12:47:39;26.40;99.90
42833;DHT22;28479;51.478;5.692;2022-08-19T12:50:05;26.70;99.90
42833;DHT22;28479;51.478;5.692;2022-08-19T12:52:35;26.70;99.90
42833;DHT22;28479;51.478;5.692;2022-08-19T12:55:07;26.30;99.90
42833;DHT22;28479;51.478;5.692;2022-08-19T12:57:33;26.20;99.90
42833;DHT22;28479;51.478;5.692;2022-08-19T13:00:15;26.10;99.90
42833;DHT22;28479;51.478;5.692;2022-08-19T13:02:44;25.90;99.90
42833;DHT22;28479;51.478;5.692;2022-08-19T13:05:14;25.80;99.90
42833;DHT22;28479;51.478;5.692;2022-08-19T13:07:41;26.20;99.90
42833;DHT22;28479;51.478;5.692;2022-08-19T13:10:11;26.10;99.90
42833;DHT22;28479;51.478;5.692;2022-08-19T13:12:37;25.80;99.90
42833;DHT22;28479;51.478;5.692;2022-08-19T13:15:03;25.80;99.90
42833;DHT22;28479;51.478;5.692;2022-08-19T13:17:29;25.90;99.90
42833;DHT22;28479;51.478;5.692;2022-08-19T13:19:55;26.10;99.90
42833;DHT22;28479;51.478;5.692;2022-08-19T13:22:20;26.30;99.90
42833;DHT22;28479;51.478;5.692;2022-08-19T13:24:46;26.20;99.90
42833;DHT22;28479;51.478;5.692;2022-08-19T13:27:11;26.20;99.90
42833;DHT22;28479;51.478;5.692;2022-08-19T13:29:40;26.40;99.90
42833;DHT22;28479;51.478;5.692;2022-08-19T13:32:24;26.60;99.90
42833;DHT22;28479;51.478;5.692;2022-08-19T13:35:08;26.90;99.90
42833;DHT22;28479;51.478;5.692;2022-08-19T13:37:34;26.60;99.90
42833;DHT22;28479;51.478;5.692;2022-08-19T13:40:18;27.10;99.90
42833;DHT22;28479;51.478;5.692;2022-08-19T13:42:48;26.70;99.90
42833;DHT22;28479;51.478;5.692;2022-08-19T13:45:17;26.40;99.90
42833;DHT22;28479;51.478;5.692;2022-08-19T13:47:46;26.70;99.90
42833;DHT22;28479;51.478;5.692;2022-08-19T13:50:13;27.20;99.90
42833;DHT22;28479;51.478;5.692;2022-08-19T13:52:39;27.60;99.90
42833;DHT22;28479;51.478;5.692;2022-08-19T13:55:06;27.10;99.90
42833;DHT22;28479;51.478;5.692;2022-08-19T13:57:33;27.40;99.90
42833;DHT22;28479;51.478;5.692;2022-08-19T13:59:59;27.60;99.90
42833;DHT22;28479;51.478;5.692;2022-08-19T14:02:27;27.90;99.90
42833;DHT22;28479;51.478;5.692;2022-08-19T14:04:53;27.60;99.90
42833;DHT22;28479;51.478;5.692;2022-08-19T14:07:19;27.30;99.90
42833;DHT22;28479;51.478;5.692;2022-08-19T14:09:44;27.20;99.90
42833;DHT22;28479;51.478;5.692;2022-08-19T14:12:10;27.30;99.90
42833;DHT22;28479;51.478;5.692;2022-08-19T14:14:39;27.10;99.90
42833;DHT22;28479;51.478;5.692;2022-08-19T14:17:08;27.10;99.90
42833;DHT22;28479;51.478;5.692;2022-08-19T14:19:34;27.00;99.90
42833;DHT22;28479;51.478;5.692;2022-08-19T14:22:00;26.80;99.90
42833;DHT22;28479;51.478;5.692;2022-08-19T14:24:26;26.70;99.90
42833;DHT22;28479;51.478;5.692;2022-08-19T14:26:52;26.70;99.90
42833;DHT22;28479;51.478;5.692;2022-08-19T14:29:17;26.80;99.90
42833;DHT22;28479;51.478;5.692;2022-08-19T14:31:43;26.70;99.90
42833;DHT22;28479;51.478;5.692;2022-08-19T14:34:09;26.90;99.90
42833;DHT22;28479;51.478;5.692;2022-08-19T14:36:36;26.90;99.90
42833;DHT22;28479;51.478;5.692;2022-08-19T14:39:03;27.00;99.90
42833;DHT22;28479;51.478;5.692;2022-08-19T14:41:29;26.70;99.90
42833;DHT22;28479;51.478;5.692;2022-08-19T14:43:56;27.30;99.90
42833;DHT22;28479;51.478;5.692;2022-08-19T14:46:25;27.60;99.90
42833;DHT22;28479;51.478;5.692;2022-08-19T14:48:52;27.70;99.90
42833;DHT22;28479;51.478;5.692;2022-08-19T14:51:19;27.50;99.90
42833;DHT22;28479;51.478;5.692;2022-08-19T14:53:45;27.50;99.90
42833;DHT22;28479;51.478;5.692;2022-08-19T14:56:16;27.50;99.90
42833;DHT22;28479;51.478;5.692;2022-08-19T14:58:43;26.90;99.90
42833;DHT22;28479;51.478;5.692;2022-08-19T15:01:09;26.60;99.90
42833;DHT22;28479;51.478;5.692;2022-08-19T15:03:36;26.20;99.90
42833;DHT22;28479;51.478;5.692;2022-08-19T15:06:03;26.20;99.90
42833;DHT22;28479;51.478;5.692;2022-08-19T15:08:31;26.00;99.90
42833;DHT22;28479;51.478;5.692;2022-08-19T15:10:58;26.20;99.90
42833;DHT22;28479;51.478;5.692;2022-08-19T15:13:25;26.00;99.90
42833;DHT22;28479;51.478;5.692;2022-08-19T15:15:52;25.90;99.90
42833;DHT22;28479;51.478;5.692;2022-08-19T15:18:18;26.10;99.90
42833;DHT22;28479;51.478;5.692;2022-08-19T15:20:46;25.90;99.90
42833;DHT22;28479;51.478;5.692;2022-08-19T15:23:16;25.80;99.90
42833;DHT22;28479;51.478;5.692;2022-08-19T15:25:42;25.90;99.90
42833;DHT22;28479;51.478;5.692;2022-08-19T15:28:09;25.80;99.90
42833;DHT22;28479;51.478;5.692;2022-08-19T15:30:39;26.00;99.90
42833;DHT22;28479;51.478;5.692;2022-08-19T15:33:05;26.20;99.90
42833;DHT22;28479;51.478;5.692;2022-08-19T15:35:31;26.10;99.90
42833;DHT22;28479;51.478;5.692;2022-08-19T15:37:57;26.10;99.90
42833;DHT22;28479;51.478;5.692;2022-08-19T15:40:24;26.00;99.90
42833;DHT22;28479;51.478;5.692;2022-08-19T15:42:51;25.80;99.90
42833;DHT22;28479;51.478;5.692;2022-08-19T15:45:18;25.90;99.90
42833;DHT22;28479;51.478;5.692;2022-08-19T15:47:44;26.00;99.90